Time;durP1;ratioP1;P1;durP2;ratioP2;P2;SDS_P1;SDS_P2;PMS_P1;PMS_P2;Temp;Humidity;BMP_temperature;BMP_pressure;BME280_temperature;BME280_humidity;BME280_pressure;Samples;Min_cycle;Max_cycle;Signal;HPM_P1;HPM_P2
2021/08/24 00:01:32;;;;;;;2.97;2.53;;;16.00;99.90;;;;;;6248004;28;20216;-75
2021/08/24 00:04:34;;;;;;;2.80;2.60;;;16.00;99.90;;;;;;6246871;28;20207;-74
2021/08/24 00:07:37;;;;;;;2.30;2.10;;;16.00;99.90;;;;;;6247691;28;20195;-74
2021/08/24 00:10:47;;;;;;;3.00;2.70;;;16.00;99.90;;;;;;6246447;28;20570;-75
2021/08/24 00:13:49;;;;;;;2.33;2.13;;;16.00;99.90;;;;;;6246315;28;20323;-74
2021/08/24 00:16:52;;;;;;;3.03;2.73;;;16.00;99.90;;;;;;6247117;28;20208;-75
2021/08/24 00:19:54;;;;;;;4.23;2.53;;;16.00;99.90;;;;;;6246093;28;20655;-75
2021/08/24 00:23:01;;;;;;;3.53;2.50;;;16.00;99.90;;;;;;6247732;28;20196;-75
2021/08/24 00:26:04;;;;;;;2.43;2.13;;;16.00;99.90;;;;;;6262575;28;20193;-74
2021/08/24 00:29:06;;;;;;;3.50;2.37;;;16.00;99.90;;;;;;6247781;28;20199;-74
2021/08/24 00:32:09;;;;;;;2.13;1.93;;;16.00;99.90;;;;;;6247148;28;20553;-75
2021/08/24 00:35:11;;;;;;;3.03;2.77;;;16.00;99.90;;;;;;6246540;28;20196;-74
2021/08/24 00:38:16;;;;;;;2.60;2.40;;;16.00;99.90;;;;;;6247464;28;20191;-74
2021/08/24 00:41:19;;;;;;;2.60;2.30;;;16.00;99.90;;;;;;6245709;28;20299;-74
2021/08/24 00:44:21;;;;;;;2.60;2.40;;;16.00;99.90;;;;;;6238054;28;20323;-75
2021/08/24 00:47:29;;;;;;;3.13;2.47;;;16.00;99.90;;;;;;6250358;28;20188;-74
2021/08/24 00:50:37;;;;;;;2.30;2.10;;;16.00;99.90;;;;;;6247770;28;20192;-75
2021/08/24 00:53:40;;;;;;;2.73;2.00;;;16.00;99.90;;;;;;6247012;28;20263;-74
2021/08/24 00:56:47;;;;;;;2.60;2.27;;;16.00;99.90;;;;;;6246696;28;20184;-75
2021/08/24 00:59:51;;;;;;;4.10;2.23;;;16.00;99.90;;;;;;6229397;28;20249;-75
2021/08/24 01:02:58;;;;;;;2.30;2.10;;;16.00;99.90;;;;;;6245194;28;20192;-75
2021/08/24 01:06:18;;;;;;;2.13;1.93;;;16.00;99.90;;;;;;6222369;28;20173;-74
2021/08/24 01:09:36;;;;;;;1.67;1.57;;;16.00;99.90;;;;;;6245264;28;20192;-75
2021/08/24 01:13:11;;;;;;;1.70;1.60;;;16.00;99.90;;;;;;6245212;28;20256;-74
2021/08/24 01:16:33;;;;;;;1.73;1.63;;;16.00;99.90;;;;;;6246450;28;20195;-76
2021/08/24 01:20:13;;;;;;;2.77;1.80;;;16.00;99.90;;;;;;6246351;28;20201;-75
2021/08/24 01:23:37;;;;;;;1.80;1.70;;;16.00;99.90;;;;;;6220696;28;20193;-76
2021/08/24 01:26:57;;;;;;;2.07;1.50;;;16.00;99.90;;;;;;6228114;28;20192;-75
2021/08/24 01:30:16;;;;;;;1.30;1.20;;;16.00;99.90;;;;;;6246487;28;20283;-74
2021/08/24 01:33:41;;;;;;;1.50;1.40;;;16.00;99.90;;;;;;6261066;28;20243;-75
2021/08/24 01:36:48;;;;;;;1.60;1.30;;;16.00;99.90;;;;;;6228987;28;20266;-75
2021/08/24 01:39:54;;;;;;;1.40;1.30;;;16.00;99.90;;;;;;6245855;28;20204;-75
2021/08/24 01:42:58;;;;;;;2.50;1.33;;;15.90;99.90;;;;;;6244940;28;20254;-75
2021/08/24 01:46:23;;;;;;;2.90;2.00;;;15.90;99.90;;;;;;6244504;28;20251;-76
2021/08/24 01:49:49;;;;;;;3.23;1.73;;;15.90;99.90;;;;;;6228663;28;20196;-76
2021/08/24 01:52:58;;;;;;;2.27;1.57;;;15.80;99.90;;;;;;6244907;28;20200;-75
2021/08/24 01:56:12;;;;;;;2.10;1.90;;;15.80;99.90;;;;;;6244431;28;20684;-76
2021/08/24 01:59:27;;;;;;;1.83;1.60;;;15.80;99.90;;;;;;6246119;28;20191;-75
2021/08/24 02:02:35;;;;;;;4.83;1.80;;;15.80;99.90;;;;;;6228046;28;20287;-75
2021/08/24 02:05:56;;;;;;;1.70;1.60;;;15.80;99.90;;;;;;6223557;28;20597;-76
2021/08/24 02:09:22;;;;;;;2.87;1.60;;;15.80;99.90;;;;;;6244467;28;20196;-75
2021/08/24 02:12:26;;;;;;;2.97;2.13;;;15.90;99.90;;;;;;6227924;28;20586;-75
2021/08/24 02:15:37;;;;;;;2.70;2.50;;;15.90;99.90;;;;;;6245792;28;20195;-76
2021/08/24 02:18:44;;;;;;;3.67;1.93;;;15.90;99.90;;;;;;6221663;28;20212;-75
2021/08/24 02:21:56;;;;;;;1.93;1.83;;;15.90;99.90;;;;;;6264140;28;20972;-75
2021/08/24 02:25:30;;;;;;;3.30;2.70;;;15.90;99.90;;;;;;6265570;28;20203;-75
2021/08/24 02:28:39;;;;;;;2.70;2.37;;;15.90;99.90;;;;;;6250423;28;20253;-76
2021/08/24 02:32:04;;;;;;;2.30;2.10;;;15.90;99.90;;;;;;6232230;28;20625;-75
2021/08/24 02:35:17;;;;;;;2.40;2.20;;;15.90;99.90;;;;;;6250318;28;20211;-75
2021/08/24 02:38:33;;;;;;;2.20;2.00;;;15.90;99.90;;;;;;6232284;28;20199;-75
2021/08/24 02:41:53;;;;;;;2.60;2.40;;;16.00;99.90;;;;;;6265350;28;20220;-75
2021/08/24 02:45:12;;;;;;;2.00;1.83;;;16.00;99.90;;;;;;6232551;28;20684;-76
2021/08/24 02:48:16;;;;;;;3.70;1.90;;;16.00;99.90;;;;;;6248908;28;20196;-75
2021/08/24 02:51:20;;;;;;;2.70;2.33;;;16.00;99.90;;;;;;6250015;28;20215;-77
2021/08/24 02:54:24;;;;;;;2.20;1.97;;;16.00;99.90;;;;;;6248139;28;20192;-75
2021/08/24 02:57:27;;;;;;;2.67;2.23;;;16.00;99.90;;;;;;6249905;28;20192;-75
2021/08/24 03:00:30;;;;;;;5.53;2.47;;;16.00;99.90;;;;;;6247831;28;20215;-75
2021/08/24 03:03:34;;;;;;;3.03;2.43;;;16.00;99.90;;;;;;6225239;28;20601;-75
2021/08/24 03:06:42;;;;;;;3.30;2.87;;;16.00;99.90;;;;;;6248614;28;20191;-74
2021/08/24 03:09:47;;;;;;;2.97;2.67;;;16.00;99.90;;;;;;6264557;28;20269;-75
2021/08/24 03:12:54;;;;;;;2.77;2.57;;;16.00;99.90;;;;;;6247671;28;20237;-75
2021/08/24 03:16:08;;;;;;;2.77;2.50;;;16.00;99.90;;;;;;6247465;28;20196;-75
2021/08/24 03:19:17;;;;;;;5.13;3.10;;;16.00;99.90;;;;;;6231821;28;20703;-75
2021/08/24 03:22:21;;;;;;;3.20;2.77;;;16.00;99.90;;;;;;6239889;28;20219;-75
2021/08/24 03:25:24;;;;;;;3.87;3.57;;;16.00;99.90;;;;;;6232939;28;20188;-75
2021/08/24 03:28:26;;;;;;;3.10;2.90;;;16.00;99.90;;;;;;6248899;28;20192;-75
2021/08/24 03:31:30;;;;;;;4.20;3.80;;;16.00;99.90;;;;;;6246926;28;20223;-75
2021/08/24 03:34:33;;;;;;;3.80;3.50;;;16.00;99.90;;;;;;6248114;28;20680;-75
2021/08/24 03:37:36;;;;;;;3.73;3.00;;;15.90;99.90;;;;;;6247239;28;20207;-76
2021/08/24 03:40:38;;;;;;;3.20;3.00;;;15.90;99.90;;;;;;6248725;28;20265;-75
2021/08/24 03:43:41;;;;;;;3.70;2.60;;;15.90;99.90;;;;;;6247146;28;20306;-75
2021/08/24 03:46:43;;;;;;;2.63;2.43;;;15.90;99.90;;;;;;6230638;28;20220;-75
2021/08/24 03:49:45;;;;;;;2.80;2.37;;;15.90;99.90;;;;;;6263900;28;20226;-75
2021/08/24 03:52:48;;;;;;;2.60;2.40;;;15.80;99.90;;;;;;6247093;28;20188;-76
2021/08/24 03:55:50;;;;;;;2.73;2.53;;;15.80;99.90;;;;;;6248400;28;20196;-75
2021/08/24 03:58:52;;;;;;;3.50;2.40;;;15.70;99.90;;;;;;6248332;28;20602;-75
2021/08/24 04:01:54;;;;;;;2.97;2.63;;;15.70;99.90;;;;;;6246457;28;20301;-75
2021/08/24 04:05:01;;;;;;;3.53;2.83;;;15.70;99.90;;;;;;6248398;28;20218;-75
2021/08/24 04:08:04;;;;;;;2.67;2.47;;;15.60;99.90;;;;;;6246536;28;20192;-75
2021/08/24 04:11:08;;;;;;;2.60;2.40;;;15.60;99.90;;;;;;6230191;28;20227;-75
2021/08/24 04:14:10;;;;;;;3.27;2.80;;;15.50;99.90;;;;;;6245961;28;20240;-74
2021/08/24 04:17:13;;;;;;;2.93;2.60;;;15.50;99.90;;;;;;6246694;28;20192;-75
2021/08/24 04:20:16;;;;;;;3.10;2.80;;;15.50;99.90;;;;;;6247686;28;20699;-75
2021/08/24 04:23:23;;;;;;;2.37;2.17;;;15.50;99.90;;;;;;6247661;28;20275;-75
2021/08/24 04:26:26;;;;;;;2.63;2.43;;;15.40;99.90;;;;;;6248028;28;20242;-75
2021/08/24 04:29:29;;;;;;;2.57;2.37;;;15.40;99.90;;;;;;6262713;28;20192;-74
2021/08/24 04:32:34;;;;;;;2.77;1.80;;;15.40;99.90;;;;;;6245922;28;20211;-75
2021/08/24 04:35:36;;;;;;;2.50;2.30;;;15.40;99.90;;;;;;6247226;28;20196;-75
2021/08/24 04:38:39;;;;;;;2.50;2.30;;;15.40;99.90;;;;;;6245872;28;20245;-76
2021/08/24 04:41:41;;;;;;;2.40;2.20;;;15.30;99.90;;;;;;6246440;28;20309;-75
2021/08/24 04:44:44;;;;;;;2.50;2.30;;;15.30;99.90;;;;;;6262082;28;20195;-75
2021/08/24 04:47:46;;;;;;;2.40;2.20;;;15.30;99.90;;;;;;6229617;28;20690;-75
2021/08/24 04:50:49;;;;;;;1.70;1.60;;;15.30;99.90;;;;;;6246126;28;20302;-75
2021/08/24 04:53:51;;;;;;;3.67;1.83;;;15.30;99.90;;;;;;6245408;28;20212;-75
2021/08/24 04:56:53;;;;;;;2.10;1.90;;;15.40;99.90;;;;;;6245869;28;20200;-74
2021/08/24 04:59:55;;;;;;;2.40;2.20;;;15.40;99.90;;;;;;6245358;28;20286;-74
2021/08/24 05:02:58;;;;;;;2.73;2.53;;;15.40;99.90;;;;;;6246497;28;20241;-75
2021/08/24 05:06:01;;;;;;;3.77;2.43;;;15.40;99.90;;;;;;6246194;28;20576;-75
2021/08/24 05:09:04;;;;;;;2.20;2.00;;;15.40;99.90;;;;;;6262012;28;20672;-75
2021/08/24 05:12:06;;;;;;;2.37;2.17;;;15.40;99.90;;;;;;6246016;28;20212;-75
2021/08/24 05:15:09;;;;;;;2.50;1.90;;;15.30;99.90;;;;;;6245924;28;20206;-74
2021/08/24 05:18:12;;;;;;;1.63;1.53;;;15.30;99.90;;;;;;6261022;28;20184;-76
2021/08/24 05:21:14;;;;;;;2.10;2.00;;;15.40;99.90;;;;;;6244051;28;20238;-74
2021/08/24 05:24:17;;;;;;;1.87;1.70;;;15.40;99.90;;;;;;6244281;28;20208;-75
2021/08/24 05:27:19;;;;;;;2.37;1.70;;;15.50;99.90;;;;;;6244833;28;20273;-74
2021/08/24 05:30:24;;;;;;;2.30;1.73;;;15.50;99.90;;;;;;6245484;28;20754;-75
2021/08/24 05:33:26;;;;;;;2.43;2.10;;;15.60;99.90;;;;;;6228055;28;20339;-75
2021/08/24 05:36:28;;;;;;;2.37;2.17;;;15.60;99.90;;;;;;6244061;28;20201;-74
2021/08/24 05:39:32;;;;;;;2.30;2.10;;;15.60;99.90;;;;;;6245676;28;20269;-73
2021/08/24 05:42:34;;;;;;;2.90;1.83;;;15.60;99.90;;;;;;6227719;28;20220;-75
2021/08/24 05:45:36;;;;;;;2.27;1.80;;;15.70;99.90;;;;;;6245373;28;20192;-74
2021/08/24 05:48:40;;;;;;;1.83;1.73;;;15.80;99.90;;;;;;6244465;28;20204;-74
2021/08/24 05:51:42;;;;;;;1.80;1.70;;;15.90;99.90;;;;;;6243847;28;20211;-75
2021/08/24 05:54:45;;;;;;;4.13;1.77;;;16.00;99.90;;;;;;6248261;28;20196;-74
2021/08/24 05:57:49;;;;;;;2.70;1.40;;;16.00;99.90;;;;;;6232439;28;20207;-75
2021/08/24 06:00:52;;;;;;;1.87;1.53;;;16.20;99.90;;;;;;6250391;28;20572;-75
2021/08/24 06:03:56;;;;;;;1.97;1.73;;;16.30;99.90;;;;;;6232604;28;20238;-75
2021/08/24 06:06:58;;;;;;;2.20;1.90;;;16.30;99.90;;;;;;6248508;28;20258;-75
2021/08/24 06:10:01;;;;;;;4.13;1.90;;;16.30;99.90;;;;;;6248612;28;20557;-75
2021/08/24 06:13:04;;;;;;;2.10;2.00;;;16.20;99.90;;;;;;6249702;28;20234;-73
2021/08/24 06:16:06;;;;;;;1.80;1.70;;;16.20;99.90;;;;;;6248863;28;20204;-74
2021/08/24 06:19:09;;;;;;;1.97;1.87;;;16.10;99.90;;;;;;6250235;28;20191;-73
2021/08/24 06:22:12;;;;;;;2.60;2.40;;;16.10;99.90;;;;;;6248190;28;20293;-74
2021/08/24 06:25:17;;;;;;;2.03;1.93;;;16.00;99.90;;;;;;6232688;28;20196;-73
2021/08/24 06:28:19;;;;;;;2.20;2.00;;;16.00;99.90;;;;;;6248115;28;20782;-74
2021/08/24 06:31:24;;;;;;;1.80;1.70;;;16.00;99.90;;;;;;6248532;28;20235;-74
2021/08/24 06:34:28;;;;;;;2.67;2.00;;;16.00;99.90;;;;;;6243934;28;20204;-75
2021/08/24 06:37:31;;;;;;;2.07;1.67;;;16.00;99.90;;;;;;6226066;28;20237;-74
2021/08/24 06:40:34;;;;;;;1.80;1.63;;;16.00;99.90;;;;;;6248358;28;20196;-74
2021/08/24 06:43:37;;;;;;;2.57;1.70;;;15.90;99.90;;;;;;6263373;28;20211;-73
2021/08/24 06:46:40;;;;;;;1.53;1.43;;;16.00;99.90;;;;;;6249541;28;20188;-75
2021/08/24 06:49:42;;;;;;;1.90;1.80;;;16.00;99.90;;;;;;6247682;28;20683;-74
2021/08/24 06:52:45;;;;;;;5.00;1.60;;;16.10;99.90;;;;;;6247682;28;20196;-74
2021/08/24 06:55:48;;;;;;;1.30;1.20;;;16.20;99.90;;;;;;6249125;28;20219;-74
2021/08/24 06:58:50;;;;;;;2.07;1.40;;;16.30;99.90;;;;;;6248808;28;20193;-74
2021/08/24 07:01:53;;;;;;;1.97;1.40;;;16.40;99.90;;;;;;6247580;28;20307;-73
2021/08/24 07:04:56;;;;;;;1.03;1.03;;;16.30;99.90;;;;;;6247134;28;20672;-73
2021/08/24 07:07:58;;;;;;;0.80;0.80;;;16.30;99.90;;;;;;6247357;28;20203;-74
2021/08/24 07:11:01;;;;;;;0.97;0.97;;;16.30;99.90;;;;;;6247378;28;20204;-74
2021/08/24 07:14:04;;;;;;;1.20;1.10;;;16.40;99.90;;;;;;6247951;28;20223;-73
2021/08/24 07:17:07;;;;;;;1.53;0.97;;;16.40;99.90;;;;;;6248366;28;20199;-73
2021/08/24 07:20:12;;;;;;;1.60;1.10;;;16.40;99.90;;;;;;6230386;28;20266;-74
2021/08/24 07:23:15;;;;;;;0.93;0.77;;;16.50;99.90;;;;;;6230672;28;20219;-74
2021/08/24 07:26:19;;;;;;;2.50;1.20;;;16.40;99.90;;;;;;6246827;28;20268;-74
2021/08/24 07:29:21;;;;;;;2.53;1.17;;;16.50;99.90;;;;;;6247729;28;20268;-74
2021/08/24 07:32:23;;;;;;;2.97;1.10;;;16.50;99.90;;;;;;6246462;28;20202;-74
2021/08/24 07:35:26;;;;;;;2.20;1.10;;;16.30;99.90;;;;;;6247258;28;20208;-73
2021/08/24 07:38:28;;;;;;;2.40;1.00;;;16.30;99.90;;;;;;6246713;28;20287;-74
2021/08/24 07:41:30;;;;;;;1.10;1.10;;;16.40;99.90;;;;;;6247313;28;20207;-74
2021/08/24 07:44:33;;;;;;;1.60;1.10;;;16.30;99.90;;;;;;6248223;28;20596;-75
2021/08/24 07:47:36;;;;;;;1.60;1.10;;;16.30;99.90;;;;;;6229985;28;20200;-74
2021/08/24 07:50:38;;;;;;;0.90;0.90;;;16.30;99.90;;;;;;6246406;28;20197;-74
2021/08/24 07:53:41;;;;;;;1.07;0.97;;;16.30;99.90;;;;;;6247278;28;20306;-74
2021/08/24 07:56:43;;;;;;;0.77;0.70;;;16.20;99.90;;;;;;6247506;28;20691;-74
2021/08/24 07:59:45;;;;;;;0.73;0.73;;;16.20;99.90;;;;;;6246340;28;20199;-74
2021/08/24 08:02:48;;;;;;;7.93;5.90;;;16.30;99.90;;;;;;6229693;28;20388;-73
2021/08/24 08:05:51;;;;;;;1.40;1.30;;;16.40;99.90;;;;;;6245590;28;20227;-73
2021/08/24 08:08:53;;;;;;;2.37;0.97;;;16.50;99.90;;;;;;6246225;28;20196;-73
2021/08/24 08:11:56;;;;;;;0.90;0.90;;;16.60;99.90;;;;;;6246583;28;20219;-74
2021/08/24 08:14:58;;;;;;;1.03;0.70;;;16.60;99.90;;;;;;6262213;28;20203;-74
2021/08/24 08:18:08;;;;;;;1.90;0.70;;;16.70;99.90;;;;;;6247190;28;20666;-74
2021/08/24 08:21:11;;;;;;;1.43;0.80;;;16.80;99.90;;;;;;6247049;28;20216;-73
2021/08/24 08:24:13;;;;;;;0.80;0.70;;;17.00;99.90;;;;;;6231241;28;20790;-74
2021/08/24 08:27:15;;;;;;;0.80;0.80;;;17.10;99.90;;;;;;6247038;28;20192;-74
2021/08/24 08:30:18;;;;;;;1.27;0.70;;;17.30;99.90;;;;;;6225957;28;20325;-74
2021/08/24 08:33:20;;;;;;;0.70;0.70;;;17.50;99.90;;;;;;6241224;28;20598;-73
2021/08/24 08:36:23;;;;;;;0.70;0.70;;;17.70;99.90;;;;;;6244974;28;20231;-73
2021/08/24 08:39:25;;;;;;;0.70;0.70;;;18.10;99.90;;;;;;6228326;28;20204;-74
2021/08/24 08:42:52;;;;;;;1.17;0.80;;;18.40;99.90;;;;;;6244578;28;20211;-74
2021/08/24 08:46:00;;;;;;;1.33;0.50;;;18.60;99.90;;;;;;6245036;28;20201;-73
2021/08/24 08:49:29;;;;;;;0.70;0.70;;;18.60;99.90;;;;;;6244515;28;20254;-74
2021/08/24 08:52:46;;;;;;;1.07;0.67;;;18.60;99.90;;;;;;6228426;28;20196;-75
2021/08/24 08:55:50;;;;;;;1.50;0.70;;;18.60;99.90;;;;;;6245916;28;20192;-73
2021/08/24 08:59:02;;;;;;;0.70;0.70;;;18.70;99.90;;;;;;6245187;28;20196;-74
2021/08/24 09:02:22;;;;;;;0.73;0.60;;;18.70;99.90;;;;;;6244850;28;20204;-74
2021/08/24 09:05:26;;;;;;;0.63;0.63;;;18.60;99.90;;;;;;6245051;28;20277;-74
2021/08/24 09:08:29;;;;;;;0.57;0.57;;;18.50;99.90;;;;;;6244634;28;20196;-75
2021/08/24 09:11:37;;;;;;;1.13;0.60;;;18.30;99.90;;;;;;6244528;28;20219;-73
2021/08/24 09:14:45;;;;;;;0.60;0.60;;;18.30;99.90;;;;;;6243907;28;20315;-74
2021/08/24 09:17:50;;;;;;;2.03;0.60;;;18.20;99.90;;;;;;6245367;28;20196;-74
2021/08/24 09:21:01;;;;;;;1.27;0.70;;;18.20;99.90;;;;;;6245594;28;20596;-74
2021/08/24 09:24:13;;;;;;;0.60;0.60;;;18.10;99.90;;;;;;6245520;28;20200;-74
2021/08/24 09:27:33;;;;;;;0.50;0.50;;;18.20;99.90;;;;;;6244117;28;20224;-73
2021/08/24 09:30:39;;;;;;;0.53;0.53;;;18.10;99.90;;;;;;6244629;28;20192;-74
2021/08/24 09:33:41;;;;;;;0.50;0.50;;;18.20;99.90;;;;;;6244138;28;20544;-73
2021/08/24 09:36:44;;;;;;;2.03;0.70;;;18.30;99.90;;;;;;6244449;28;20588;-73
2021/08/24 09:40:03;;;;;;;1.90;0.60;;;18.40;99.90;;;;;;6245533;28;20214;-74
2021/08/24 09:43:38;;;;;;;0.53;0.53;;;18.50;99.90;;;;;;6260873;28;20228;-74
2021/08/24 09:46:40;;;;;;;1.50;0.90;;;18.50;99.90;;;;;;6168070;28;20210;-73
2021/08/24 09:49:43;;;;;;;0.80;0.80;;;18.40;99.90;;;;;;6130791;29;20213;-73
2021/08/24 09:52:50;;;;;;;1.13;1.00;;;18.30;99.90;;;;;;6148558;28;20542;-73
2021/08/24 09:55:53;;;;;;;1.17;0.97;;;18.30;99.90;;;;;;6160410;28;20209;-73
2021/08/24 09:58:56;;;;;;;0.83;0.60;;;18.30;99.90;;;;;;6169505;28;20202;-73
2021/08/24 10:01:58;;;;;;;0.43;0.43;;;18.40;99.90;;;;;;6151672;28;20222;-74
2021/08/24 10:05:02;;;;;;;0.70;0.70;;;18.60;99.90;;;;;;6153526;28;20194;-73
2021/08/24 10:08:28;;;;;;;0.80;0.80;;;18.90;99.90;;;;;;6169533;28;20197;-74
2021/08/24 10:11:32;;;;;;;1.07;0.73;;;19.10;99.90;;;;;;6169548;28;20317;-73
2021/08/24 10:14:35;;;;;;;0.80;0.80;;;19.20;99.90;;;;;;6167926;28;20643;-74
2021/08/24 10:17:38;;;;;;;2.50;0.97;;;19.30;99.90;;;;;;6129610;29;20258;-74
2021/08/24 10:20:40;;;;;;;0.83;0.83;;;19.40;99.90;;;;;;6172370;28;20277;-73
2021/08/24 10:23:55;;;;;;;0.80;0.80;;;19.70;99.90;;;;;;6245047;28;20210;-73
2021/08/24 10:27:09;;;;;;;4.50;1.10;;;19.90;99.90;;;;;;6219976;28;20185;-73
2021/08/24 10:30:57;;;;;;;1.20;1.00;;;20.00;99.90;;;;;;6235908;28;20262;-73
2021/08/24 10:34:01;;;;;;;2.57;0.80;;;19.80;99.90;;;;;;6242894;28;20208;-74
2021/08/24 10:37:25;;;;;;;0.70;0.70;;;19.40;99.90;;;;;;6243271;28;20734;-74
2021/08/24 10:40:43;;;;;;;0.60;0.60;;;18.90;99.90;;;;;;6245331;28;20275;-74
2021/08/24 10:43:52;;;;;;;0.60;0.60;;;18.50;99.90;;;;;;6239914;28;20225;-73
2021/08/24 10:47:00;;;;;;;1.00;0.63;;;18.20;99.90;;;;;;6235855;28;20616;-73
2021/08/24 10:50:05;;;;;;;0.80;0.50;;;18.10;99.90;;;;;;6247736;28;20595;-74
2021/08/24 10:53:36;;;;;;;0.40;0.40;;;18.00;99.90;;;;;;6249306;28;20631;-74
2021/08/24 10:57:01;;;;;;;0.30;0.30;;;18.00;99.90;;;;;;6248028;28;20210;-74
2021/08/24 11:00:20;;;;;;;0.50;0.50;;;18.10;99.90;;;;;;6246532;28;20291;-73
2021/08/24 11:03:36;;;;;;;0.60;0.50;;;18.30;99.90;;;;;;6263935;28;20453;-74
2021/08/24 11:07:01;;;;;;;1.60;0.60;;;18.50;99.90;;;;;;6249239;28;20330;-75
2021/08/24 11:10:16;;;;;;;0.53;0.53;;;18.70;99.90;;;;;;6248521;28;20180;-76
2021/08/24 11:13:21;;;;;;;0.60;0.60;;;19.00;99.90;;;;;;6248286;28;20286;-75
2021/08/24 11:16:40;;;;;;;1.07;0.70;;;19.40;99.90;;;;;;6247141;28;20209;-76
2021/08/24 11:20:09;;;;;;;0.80;0.70;;;20.00;99.90;;;;;;6223058;28;20197;-76
2021/08/24 11:23:20;;;;;;;0.93;0.87;;;20.50;99.90;;;;;;6223524;28;20203;-76
2021/08/24 11:26:33;;;;;;;0.70;0.70;;;20.90;99.90;;;;;;6238835;28;20181;-77
2021/08/24 11:30:09;;;;;;;0.70;0.70;;;21.30;99.90;;;;;;6245147;28;20196;-77
2021/08/24 11:33:21;;;;;;;0.60;0.60;;;21.50;99.90;;;;;;6246898;28;20573;-75
2021/08/24 11:36:40;;;;;;;0.77;0.70;;;21.40;99.90;;;;;;6246120;28;20262;-75
2021/08/24 11:39:45;;;;;;;0.77;0.73;;;21.30;99.90;;;;;;6230313;28;20343;-75
2021/08/24 11:42:56;;;;;;;0.90;0.80;;;21.20;99.90;;;;;;6247699;28;20618;-77
2021/08/24 11:46:03;;;;;;;0.77;0.70;;;21.40;99.90;;;;;;6246284;28;20212;-76
2021/08/24 11:49:29;;;;;;;0.97;0.70;;;21.80;99.90;;;;;;6246740;28;20608;-76
2021/08/24 11:53:02;;;;;;;1.13;0.70;;;22.40;99.90;;;;;;6230624;28;20208;-74
2021/08/24 11:56:08;;;;;;;0.83;0.70;;;22.90;99.90;;;;;;6246651;28;20257;-75
2021/08/24 11:59:34;;;;;;;1.23;0.70;;;23.10;99.90;;;;;;6247861;28;20326;-75
2021/08/24 12:02:40;;;;;;;0.60;0.60;;;22.80;99.90;;;;;;6246272;28;20208;-75
2021/08/24 12:06:00;;;;;;;0.60;0.60;;;22.70;99.90;;;;;;6230406;28;20188;-74
2021/08/24 12:09:03;;;;;;;3.40;0.80;;;22.70;99.90;;;;;;6229438;28;20227;-75
2021/08/24 12:12:07;;;;;;;1.77;0.60;;;22.90;99.90;;;;;;6244990;28;20212;-76
2021/08/24 12:15:49;;;;;;;0.73;0.73;;;22.70;99.90;;;;;;6244300;28;20196;-75
2021/08/24 12:18:53;;;;;;;0.60;0.60;;;22.40;99.90;;;;;;6154990;28;20198;-74
2021/08/24 12:22:23;;;;;;;0.77;0.73;;;21.90;99.90;;;;;;6170673;28;20617;-77
2021/08/24 12:25:38;;;;;;;0.80;0.80;;;21.40;99.90;;;;;;6145596;28;20201;-74
2021/08/24 12:28:40;;;;;;;1.53;0.70;;;20.80;99.90;;;;;;6171806;28;20232;-76
2021/08/24 12:31:48;;;;;;;0.83;0.80;;;20.40;99.90;;;;;;6155003;28;20202;-77
2021/08/24 12:35:15;;;;;;;0.83;0.83;;;20.10;99.90;;;;;;6155164;28;20205;-78
2021/08/24 12:38:40;;;;;;;0.60;0.60;;;19.90;99.90;;;;;;6162716;28;20699;-78
2021/08/24 12:41:45;;;;;;;1.13;0.70;;;19.60;99.90;;;;;;6147214;29;20202;-78
2021/08/24 12:45:16;;;;;;;0.77;0.70;;;19.50;99.90;;;;;;6147280;28;20199;-77
2021/08/24 12:48:22;;;;;;;0.60;0.60;;;19.40;99.90;;;;;;6146983;29;20215;-77
2021/08/24 12:51:30;;;;;;;0.93;0.70;;;19.50;99.90;;;;;;6160887;28;20749;-77
2021/08/24 12:54:51;;;;;;;0.70;0.50;;;19.70;99.90;;;;;;6200600;28;20204;-76
2021/08/24 12:58:13;;;;;;;0.73;0.60;;;19.80;99.90;;;;;;6245283;28;20200;-75
2021/08/24 13:01:21;;;;;;;2.83;0.40;;;19.90;99.90;;;;;;6244803;28;20188;-77
2021/08/24 13:04:24;;;;;;;0.60;0.50;;;19.70;99.90;;;;;;6226692;28;20275;-77
2021/08/24 13:07:36;;;;;;;0.33;0.30;;;19.60;99.90;;;;;;6244908;28;20219;-76
2021/08/24 13:10:48;;;;;;;0.37;0.37;;;19.60;99.90;;;;;;6228711;28;20588;-75
2021/08/24 13:13:57;;;;;;;0.60;0.30;;;19.80;99.90;;;;;;6244590;28;20716;-75
2021/08/24 13:17:01;;;;;;;0.63;0.30;;;20.40;99.90;;;;;;6244781;28;20197;-76
2021/08/24 13:20:10;;;;;;;0.43;0.20;;;20.80;99.90;;;;;;6244684;28;20204;-75
2021/08/24 13:23:29;;;;;;;0.20;0.20;;;21.20;99.90;;;;;;6243960;28;20223;-75
2021/08/24 13:26:46;;;;;;;0.20;0.20;;;21.50;99.90;;;;;;6227258;28;20192;-75
2021/08/24 13:29:49;;;;;;;0.20;0.20;;;21.50;99.90;;;;;;6243483;28;20278;-75
2021/08/24 13:32:56;;;;;;;0.20;0.20;;;21.20;99.90;;;;;;6245799;28;20192;-74
2021/08/24 13:36:01;;;;;;;0.77;0.30;;;21.00;99.90;;;;;;6228079;28;20254;-75
2021/08/24 13:39:05;;;;;;;0.30;0.30;;;20.80;99.90;;;;;;6244043;28;20196;-74
2021/08/24 13:42:11;;;;;;;1.07;0.30;;;20.60;99.90;;;;;;6244226;28;20196;-75
2021/08/24 13:45:18;;;;;;;0.70;0.20;;;20.30;99.90;;;;;;6227436;28;20200;-75
2021/08/24 13:48:25;;;;;;;0.30;0.30;;;20.00;99.90;;;;;;6244054;28;20208;-76
2021/08/24 13:51:43;;;;;;;0.30;0.30;;;19.80;99.90;;;;;;6227646;28;20282;-75
2021/08/24 13:54:52;;;;;;;0.40;0.40;;;19.70;99.90;;;;;;6245100;28;20215;-76
2021/08/24 13:57:55;;;;;;;0.57;0.30;;;19.70;99.90;;;;;;6244197;28;20200;-75
2021/08/24 14:01:02;;;;;;;0.50;0.50;;;19.70;99.90;;;;;;6227067;28;20345;-76
2021/08/24 14:04:05;;;;;;;1.07;0.50;;;19.70;99.90;;;;;;6227815;28;20222;-76
2021/08/24 14:07:12;;;;;;;0.40;0.40;;;19.60;99.90;;;;;;6243919;28;20249;-75
2021/08/24 14:10:26;;;;;;;0.50;0.47;;;19.50;99.90;;;;;;6245429;28;20204;-75
2021/08/24 14:13:39;;;;;;;0.40;0.40;;;19.50;99.90;;;;;;6235582;28;20224;-76
2021/08/24 14:16:42;;;;;;;0.50;0.50;;;19.60;99.90;;;;;;6229739;28;20211;-75
2021/08/24 14:19:45;;;;;;;0.97;0.40;;;19.90;99.90;;;;;;6248741;28;20663;-74
2021/08/24 14:22:50;;;;;;;0.50;0.50;;;20.30;99.90;;;;;;6231875;28;20226;-77
2021/08/24 14:25:59;;;;;;;0.60;0.50;;;20.50;99.90;;;;;;6264352;28;20179;-74
2021/08/24 14:29:05;;;;;;;0.50;0.50;;;20.50;99.90;;;;;;6249616;28;20189;-74
2021/08/24 14:32:28;;;;;;;0.40;0.40;;;20.20;99.90;;;;;;6248828;28;20238;-75
2021/08/24 14:35:58;;;;;;;1.03;0.60;;;19.90;99.90;;;;;;6232122;28;20664;-75
2021/08/24 14:39:30;;;;;;;0.40;0.40;;;19.50;99.90;;;;;;6248742;28;20229;-75
2021/08/24 14:42:54;;;;;;;1.53;0.40;;;19.40;99.90;;;;;;6248146;28;20208;-76
2021/08/24 14:45:56;;;;;;;0.80;0.60;;;19.20;99.90;;;;;;6248325;28;20206;-75
2021/08/24 14:49:18;;;;;;;0.60;0.60;;;19.00;99.90;;;;;;6248520;28;20311;-76
2021/08/24 14:52:36;;;;;;;1.80;0.40;;;18.70;99.90;;;;;;6231462;28;20719;-75
2021/08/24 14:55:41;;;;;;;0.40;0.40;;;18.20;99.90;;;;;;6249154;28;20223;-75
2021/08/24 14:59:24;;;;;;;0.67;0.50;;;17.90;99.90;;;;;;6247473;28;20234;-73
2021/08/24 15:02:45;;;;;;;0.43;0.43;;;17.60;99.90;;;;;;6223452;28;20201;-74
2021/08/24 15:05:51;;;;;;;0.50;0.50;;;17.30;99.90;;;;;;6263577;28;20199;-74
2021/08/24 15:08:53;;;;;;;0.60;0.60;;;17.20;99.90;;;;;;6247535;28;20261;-74
2021/08/24 15:11:58;;;;;;;1.20;0.70;;;17.10;99.90;;;;;;6246279;28;20266;-74
2021/08/24 15:15:16;;;;;;;0.50;0.50;;;16.90;99.90;;;;;;6245547;28;20267;-75
2021/08/24 15:18:42;;;;;;;0.50;0.50;;;17.00;99.90;;;;;;6246854;28;20238;-75
2021/08/24 15:21:47;;;;;;;1.00;0.60;;;17.10;99.90;;;;;;6230108;28;20258;-74
2021/08/24 15:24:52;;;;;;;1.03;0.60;;;17.10;99.90;;;;;;6230728;28;20262;-75
2021/08/24 15:28:26;;;;;;;0.47;0.47;;;17.10;99.90;;;;;;6229356;28;20205;-74
2021/08/24 15:31:28;;;;;;;0.83;0.80;;;17.10;99.90;;;;;;6247932;28;20195;-74
2021/08/24 15:34:32;;;;;;;0.67;0.60;;;17.00;99.90;;;;;;6262934;28;20706;-74
2021/08/24 15:37:37;;;;;;;2.67;0.73;;;16.90;99.90;;;;;;6246613;28;20208;-75
2021/08/24 15:40:46;;;;;;;2.13;0.80;;;16.90;99.90;;;;;;6247225;28;20200;-75
2021/08/24 15:44:18;;;;;;;1.30;0.80;;;16.80;99.90;;;;;;6246703;28;20211;-75
2021/08/24 15:47:22;;;;;;;0.80;0.70;;;16.80;99.90;;;;;;6245415;28;20562;-74
2021/08/24 15:50:31;;;;;;;1.00;0.80;;;16.70;99.90;;;;;;6229489;28;20653;-76
2021/08/24 15:53:34;;;;;;;0.77;0.77;;;16.70;99.90;;;;;;6247577;28;20195;-75
2021/08/24 15:56:37;;;;;;;1.00;0.77;;;16.70;99.90;;;;;;6230314;28;20282;-75
2021/08/24 15:59:39;;;;;;;0.83;0.83;;;16.70;99.90;;;;;;6246329;28;20211;-75
2021/08/24 16:02:41;;;;;;;1.60;1.27;;;16.70;99.90;;;;;;6246475;28;20199;-75
2021/08/24 16:05:45;;;;;;;0.80;0.80;;;16.60;99.90;;;;;;6245353;28;20278;-74
2021/08/24 16:08:48;;;;;;;1.03;0.83;;;16.60;99.90;;;;;;6246255;28;20194;-75
2021/08/24 16:11:52;;;;;;;0.80;0.80;;;16.50;99.90;;;;;;6246519;28;20219;-74
2021/08/24 16:15:03;;;;;;;0.90;0.90;;;16.50;99.90;;;;;;6247028;28;20565;-75
2021/08/24 16:18:08;;;;;;;1.23;1.13;;;16.40;99.90;;;;;;6245640;28;20208;-74
2021/08/24 16:21:11;;;;;;;1.20;1.10;;;16.40;99.90;;;;;;6244989;28;20202;-74
2021/08/24 16:24:14;;;;;;;1.50;1.40;;;16.40;99.90;;;;;;6229495;28;20252;-75